createdAt,value
2023-01-08T00:01:14.836Z,8.74
2023-01-08T00:03:41.843Z,8.74
2023-01-08T00:11:06.762Z,8.67
2023-01-08T00:16:09.197Z,8.50
2023-01-08T00:21:05.425Z,8.50
2023-01-08T00:26:00.722Z,8.74
2023-01-08T00:28:28.388Z,8.72
2023-01-08T00:30:57.513Z,8.74
2023-01-08T00:33:27.018Z,8.73
2023-01-08T00:35:55.339Z,8.69
2023-01-08T00:38:27.057Z,8.68
2023-01-08T00:40:54.761Z,8.65
2023-01-08T00:45:55.232Z,8.80
2023-01-08T00:48:25.411Z,8.84
2023-01-08T00:50:57.693Z,8.88
2023-01-08T00:53:26.815Z,8.79
2023-01-08T00:56:01.393Z,8.86
2023-01-08T00:58:30.228Z,8.91
2023-01-08T01:00:58.393Z,8.97
2023-01-08T01:03:26.526Z,9.02
2023-01-08T01:06:02.065Z,9.04
2023-01-08T01:08:31.593Z,9.02
2023-01-08T01:10:59.371Z,9.04
2023-01-08T01:13:27.511Z,9.07
2023-01-08T01:15:59.366Z,9.06
2023-01-08T01:18:27.944Z,9.03
2023-01-08T01:20:56.167Z,9.02
2023-01-08T01:23:24.630Z,9.13
2023-01-08T01:25:54.595Z,9.07
2023-01-08T01:28:22.393Z,9.21
2023-01-08T01:30:55.008Z,9.15
2023-01-08T01:33:22.737Z,9.09
2023-01-08T01:35:50.399Z,9.23
2023-01-08T01:38:18.540Z,9.15
2023-01-08T01:40:46.513Z,9.26
2023-01-08T01:43:15.990Z,9.23
2023-01-08T01:45:43.801Z,9.19
2023-01-08T01:48:13.409Z,9.18
2023-01-08T01:50:44.222Z,9.11
2023-01-08T01:53:13.535Z,9.20
2023-01-08T01:55:42.626Z,9.20
2023-01-08T01:58:13.669Z,9.20
2023-01-08T02:00:43.172Z,9.17
2023-01-08T02:03:12.368Z,9.07
2023-01-08T02:05:46.991Z,9.08
2023-01-08T02:08:18.786Z,9.08
2023-01-08T02:10:50.337Z,9.00
2023-01-08T02:13:22.611Z,9.06
2023-01-08T02:15:57.693Z,8.84
2023-01-08T02:18:30.457Z,8.93
2023-01-08T02:21:02.628Z,9.00
2023-01-08T02:23:30.040Z,8.85
2023-01-08T02:26:15.195Z,8.89
2023-01-08T02:28:46.439Z,8.84
2023-01-08T02:31:14.687Z,8.74
2023-01-08T02:33:42.432Z,8.92
2023-01-08T02:36:27.609Z,8.83
2023-01-08T02:39:05.781Z,8.71
2023-01-08T02:41:43.326Z,8.80
2023-01-08T02:44:14.141Z,8.72
2023-01-08T02:46:43.194Z,8.69
2023-01-08T02:51:42.808Z,8.33
2023-01-08T02:54:12.944Z,8.46
2023-01-08T02:56:45.688Z,8.49
2023-01-08T03:01:42.963Z,8.42
2023-01-08T03:04:15.810Z,8.58
2023-01-08T03:06:43.979Z,8.59
2023-01-08T03:09:12.196Z,8.51
2023-01-08T03:11:45.745Z,8.54
2023-01-08T03:14:17.473Z,8.62
2023-01-08T03:16:49.037Z,8.52
2023-01-08T03:19:21.213Z,8.54
2023-01-08T03:21:50.105Z,8.56
2023-01-08T03:24:20.251Z,8.55
2023-01-08T03:26:50.090Z,8.49
2023-01-08T03:29:20.443Z,8.66
2023-01-08T03:31:48.516Z,8.63
2023-01-08T03:34:17.193Z,8.70
2023-01-08T03:36:47.341Z,8.56
2023-01-08T03:39:18.069Z,8.65
2023-01-08T03:41:46.036Z,8.63
2023-01-08T03:44:15.300Z,8.51
2023-01-08T03:46:45.870Z,8.52
2023-01-08T03:49:13.957Z,8.50
2023-01-08T03:51:42.123Z,8.48
2023-01-08T03:54:12.946Z,8.59
2023-01-08T03:56:40.585Z,8.44
2023-01-08T03:59:08.230Z,8.40
2023-01-08T04:01:37.280Z,8.41
2023-01-08T04:04:05.365Z,8.34
2023-01-08T04:06:33.063Z,8.55
2023-01-08T04:09:00.778Z,8.30
2023-01-08T04:11:28.477Z,8.26
2023-01-08T04:13:56.173Z,8.37
2023-01-08T04:16:23.857Z,8.24
2023-01-08T04:18:52.909Z,8.28
2023-01-08T04:21:20.586Z,8.36
2023-01-08T04:23:48.482Z,8.34
2023-01-08T04:26:16.208Z,8.24
2023-01-08T04:36:14.918Z,8.30
2023-01-08T04:38:44.887Z,8.33
2023-01-08T04:43:39.954Z,8.23
2023-01-08T04:46:08.990Z,8.13
2023-01-08T04:48:37.456Z,8.20
2023-01-08T04:51:05.435Z,8.13
2023-01-08T04:53:36.837Z,8.19
2023-01-08T04:56:05.521Z,8.32
2023-01-08T04:58:34.273Z,8.19
2023-01-08T05:01:02.002Z,8.36
2023-01-08T05:03:31.005Z,8.34
2023-01-08T05:06:01.503Z,8.33
2023-01-08T05:08:29.121Z,8.25
2023-01-08T05:10:59.785Z,8.14
2023-01-08T05:13:27.599Z,8.39
2023-01-08T05:15:55.205Z,8.33
2023-01-08T05:18:22.841Z,8.40
2023-01-08T05:20:51.815Z,8.41
2023-01-08T05:23:19.393Z,8.42
2023-01-08T05:25:47.093Z,8.36
2023-01-08T05:28:15.885Z,8.47
2023-01-08T05:30:43.577Z,8.25
2023-01-08T05:33:11.262Z,8.30
2023-01-08T05:35:40.363Z,8.41
2023-01-08T05:38:09.259Z,8.17
2023-01-08T05:40:36.950Z,8.27
2023-01-08T05:43:05.435Z,8.21
2023-01-08T05:45:33.174Z,8.28
2023-01-08T05:48:00.963Z,8.21
2023-01-08T05:50:28.580Z,8.12
2023-01-08T05:52:56.139Z,8.07
2023-01-08T05:55:25.152Z,8.24
2023-01-08T05:57:52.757Z,8.28
2023-01-08T06:00:20.597Z,8.25
2023-01-08T06:02:48.488Z,8.06
2023-01-08T06:05:16.491Z,8.06
2023-01-08T06:07:44.186Z,8.13
2023-01-08T06:10:11.790Z,8.16
2023-01-08T06:12:40.798Z,8.12
2023-01-08T06:15:09.617Z,8.26
2023-01-08T06:17:39.019Z,8.14
2023-01-08T06:22:34.436Z,8.09
2023-01-08T06:25:02.079Z,8.09
2023-01-08T06:27:30.031Z,8.02
2023-01-08T06:29:59.003Z,8.03
2023-01-08T06:32:26.635Z,8.14
2023-01-08T06:34:54.320Z,8.15
2023-01-08T06:37:22.029Z,7.97
2023-01-08T06:39:49.796Z,7.98
2023-01-08T06:42:17.957Z,8.07
2023-01-08T06:44:45.654Z,7.96
2023-01-08T06:47:14.717Z,8.00
2023-01-08T06:49:42.327Z,7.96
2023-01-08T06:52:09.972Z,7.95
2023-01-08T06:54:37.709Z,8.02
2023-01-08T06:57:05.285Z,8.05
2023-01-08T06:59:32.975Z,8.08
2023-01-08T07:02:00.683Z,8.11
2023-01-08T07:04:29.709Z,8.06
2023-01-08T07:06:57.300Z,8.00
2023-01-08T07:09:24.943Z,7.99
2023-01-08T07:11:52.613Z,8.08
2023-01-08T07:17:08.778Z,7.90
2023-01-08T07:19:37.033Z,8.05
2023-01-08T07:24:32.015Z,8.12
2023-01-08T07:29:28.531Z,8.01
2023-01-08T07:31:56.125Z,8.02
2023-01-08T07:39:26.968Z,8.12
2023-01-08T07:41:54.585Z,7.76
2023-01-08T07:44:22.195Z,8.07
2023-01-08T07:46:51.295Z,7.99
2023-01-08T07:51:46.589Z,7.96
2023-01-08T07:54:14.304Z,8.03
2023-01-08T07:56:42.092Z,8.02
2023-01-08T07:59:10.038Z,7.98
2023-01-08T08:04:05.017Z,8.03
2023-01-08T08:09:01.509Z,7.98
2023-01-08T08:11:29.084Z,8.04
2023-01-08T08:13:56.902Z,7.95
2023-01-08T08:16:24.582Z,8.02
2023-01-08T08:21:19.927Z,7.72
2023-01-08T08:26:17.107Z,8.13
2023-01-08T08:31:14.091Z,8.19
2023-01-08T08:38:39.907Z,7.98
2023-01-08T08:43:35.023Z,8.06
2023-01-08T08:48:32.223Z,8.02
2023-01-08T08:53:29.089Z,8.16
2023-01-08T08:56:00.245Z,8.08
2023-01-08T08:58:29.968Z,8.00
2023-01-08T09:01:02.392Z,7.99
2023-01-08T09:03:30.299Z,7.94
2023-01-08T09:05:59.748Z,8.01
2023-01-08T09:08:28.021Z,8.04
2023-01-08T09:10:55.831Z,8.08
2023-01-08T09:13:24.776Z,8.02
2023-01-08T09:15:52.447Z,8.05
2023-01-08T09:18:20.289Z,7.99
2023-01-08T09:20:47.880Z,8.23
2023-01-08T09:23:15.528Z,8.10
2023-01-08T09:25:43.142Z,8.14
2023-01-08T09:28:13.402Z,8.22
2023-01-08T09:30:42.364Z,8.22
2023-01-08T09:33:10.335Z,8.16
2023-01-08T09:35:37.969Z,7.99
2023-01-08T09:38:05.698Z,8.30
2023-01-08T09:40:36.943Z,8.29
2023-01-08T09:43:06.685Z,8.17
2023-01-08T09:45:36.571Z,8.25
2023-01-08T09:48:07.445Z,8.23
2023-01-08T09:50:35.647Z,8.44
2023-01-08T09:53:03.443Z,8.43
2023-01-08T09:55:34.347Z,8.46
2023-01-08T09:58:03.419Z,8.52
2023-01-08T10:00:33.277Z,8.51
2023-01-08T10:03:01.245Z,8.49
2023-01-08T10:05:30.898Z,8.49
2023-01-08T10:07:58.858Z,8.59
2023-01-08T10:10:28.163Z,8.51
2023-01-08T10:12:56.188Z,8.59
2023-01-08T10:15:24.219Z,8.65
2023-01-08T10:17:55.443Z,8.53
2023-01-08T10:20:24.952Z,8.62
2023-01-08T10:22:55.085Z,8.74
2023-01-08T10:25:24.872Z,8.69
2023-01-08T10:27:54.350Z,8.69
2023-01-08T10:30:24.266Z,8.85
2023-01-08T10:32:54.609Z,8.72
2023-01-08T10:35:25.913Z,8.84
2023-01-08T10:37:54.971Z,9.01
2023-01-08T10:40:26.674Z,9.12
2023-01-08T10:42:54.527Z,9.17
2023-01-08T10:45:24.471Z,9.25
2023-01-08T10:47:55.639Z,9.05
2023-01-08T10:50:26.114Z,9.35
2023-01-08T10:52:57.009Z,9.34
2023-01-08T10:55:27.352Z,9.39
2023-01-08T10:57:57.663Z,9.20
2023-01-08T11:00:27.465Z,9.29
2023-01-08T11:02:55.394Z,9.29
2023-01-08T11:05:31.335Z,9.33
2023-01-08T11:08:01.374Z,9.45
2023-01-08T11:10:29.852Z,9.48
2023-01-08T11:12:59.897Z,9.38
2023-01-08T11:15:33.686Z,9.45
2023-01-08T11:18:07.186Z,9.47
2023-01-08T11:20:35.234Z,9.45
2023-01-08T11:23:08.081Z,9.38
2023-01-08T11:25:36.553Z,9.54
2023-01-08T11:28:05.628Z,9.34
2023-01-08T11:30:34.176Z,9.35
2023-01-08T11:33:05.249Z,9.42
2023-01-08T11:35:38.129Z,9.38
2023-01-08T11:38:08.511Z,9.11
2023-01-08T11:40:44.119Z,9.35
2023-01-08T11:43:28.998Z,9.36
2023-01-08T11:46:10.499Z,9.07
2023-01-08T11:48:51.994Z,9.44
2023-01-08T11:51:45.086Z,9.47
2023-01-08T11:54:25.911Z,9.58
2023-01-08T11:57:06.013Z,9.46
2023-01-08T11:59:43.657Z,9.37
2023-01-08T12:02:21.706Z,9.33
2023-01-08T12:07:32.696Z,9.32
2023-01-08T12:10:06.587Z,9.38
2023-01-08T12:12:52.942Z,9.34
2023-01-08T12:15:26.402Z,9.32
2023-01-08T12:18:06.683Z,9.26
2023-01-08T12:20:38.916Z,9.28
2023-01-08T12:23:15.586Z,9.32
2023-01-08T12:26:02.274Z,9.36
2023-01-08T12:28:43.987Z,9.38
2023-01-08T12:31:28.425Z,9.39
2023-01-08T12:33:58.161Z,9.41
2023-01-08T12:36:29.811Z,9.44
2023-01-08T12:39:01.870Z,9.34
2023-01-08T12:41:33.135Z,9.32
2023-01-08T12:44:03.940Z,9.37
2023-01-08T12:46:35.122Z,9.36
2023-01-08T12:49:03.571Z,9.38
2023-01-08T12:51:35.126Z,9.36
2023-01-08T12:54:08.267Z,9.28
2023-01-08T12:56:44.876Z,9.38
2023-01-08T12:59:18.819Z,9.32
2023-01-08T13:01:51.922Z,9.35
2023-01-08T13:04:19.953Z,9.36
2023-01-08T13:06:52.114Z,9.27
2023-01-08T13:09:24.494Z,9.34
2023-01-08T13:11:55.595Z,9.45
2023-01-08T13:14:25.204Z,9.44
2023-01-08T13:17:03.279Z,9.49
2023-01-08T13:19:34.074Z,9.41
2023-01-08T13:22:02.074Z,9.48
2023-01-08T13:24:34.584Z,9.40
2023-01-08T13:27:29.960Z,9.37
2023-01-08T13:29:58.637Z,9.35
2023-01-08T13:32:43.820Z,9.40
2023-01-08T13:35:23.721Z,9.39
2023-01-08T13:37:52.810Z,9.42
2023-01-08T13:40:56.813Z,9.47
2023-01-08T13:43:30.022Z,9.45
2023-01-08T13:46:17.084Z,9.43
2023-01-08T13:48:51.197Z,9.43
2023-01-08T13:51:33.584Z,9.46
2023-01-08T13:54:16.768Z,9.38
2023-01-08T13:56:46.552Z,9.41
2023-01-08T13:59:24.021Z,9.43
2023-01-08T14:01:55.591Z,9.50
2023-01-08T14:04:24.924Z,9.55
2023-01-08T14:06:53.165Z,9.57
2023-01-08T14:09:27.810Z,9.49
2023-01-08T14:11:57.331Z,9.52
2023-01-08T14:14:27.919Z,9.58
2023-01-08T14:16:59.020Z,9.58
2023-01-08T14:19:27.824Z,9.57
2023-01-08T14:21:58.880Z,9.48
2023-01-08T14:24:27.251Z,9.57
2023-01-08T14:26:56.967Z,9.59
2023-01-08T14:29:27.825Z,9.65
2023-01-08T14:31:57.055Z,9.58
2023-01-08T14:34:30.316Z,9.57
2023-01-08T14:36:58.466Z,9.59
2023-01-08T14:39:34.197Z,9.54
2023-01-08T14:42:23.385Z,9.40
2023-01-08T14:44:56.507Z,9.53
2023-01-08T14:47:25.295Z,9.39
2023-01-08T14:49:54.191Z,9.43
2023-01-08T14:52:22.043Z,9.33
2023-01-08T14:54:52.176Z,9.33
2023-01-08T14:57:21.802Z,9.27
2023-01-08T14:59:56.284Z,9.22
2023-01-08T15:02:27.788Z,9.29
2023-01-08T15:05:02.769Z,9.25
2023-01-08T15:07:30.508Z,9.18
2023-01-08T15:09:59.483Z,9.28
2023-01-08T15:12:28.657Z,9.30
2023-01-08T15:14:57.746Z,9.01
2023-01-08T15:17:29.542Z,9.21
2023-01-08T15:19:58.551Z,9.22
2023-01-08T15:22:27.816Z,9.10
2023-01-08T15:24:59.182Z,8.93
2023-01-08T15:27:27.311Z,9.05
2023-01-08T15:30:00.174Z,9.02
2023-01-08T15:32:30.761Z,8.74
2023-01-08T15:34:58.353Z,8.93
2023-01-08T15:37:26.177Z,8.78
2023-01-08T15:39:54.034Z,8.82
2023-01-08T15:42:41.097Z,8.80
2023-01-08T15:45:14.465Z,8.72
2023-01-08T15:47:42.151Z,8.76
2023-01-08T15:50:11.246Z,8.71
2023-01-08T15:52:39.962Z,8.66
2023-01-08T15:55:11.020Z,8.63
2023-01-08T15:57:40.470Z,8.60
2023-01-08T16:00:10.061Z,8.63
2023-01-08T16:02:45.545Z,8.60
2023-01-08T16:05:14.288Z,8.55
2023-01-08T16:07:41.899Z,8.58
2023-01-08T16:10:10.554Z,8.56
2023-01-08T16:12:38.130Z,8.51
2023-01-08T16:15:07.980Z,8.47
2023-01-08T16:17:39.705Z,8.43
2023-01-08T16:20:10.753Z,8.34
2023-01-08T16:22:38.527Z,8.46
2023-01-08T16:25:07.305Z,8.32
2023-01-08T16:27:35.139Z,8.30
2023-01-08T16:30:02.790Z,8.27
2023-01-08T16:32:30.465Z,8.32
2023-01-08T16:34:58.094Z,8.37
2023-01-08T16:37:27.204Z,8.29
2023-01-08T16:39:54.809Z,8.26
2023-01-08T16:42:22.411Z,8.30
2023-01-08T16:44:50.056Z,8.33
2023-01-08T16:47:17.608Z,8.25
2023-01-08T16:49:45.347Z,8.30
2023-01-08T16:52:13.339Z,8.32
2023-01-08T16:54:42.349Z,8.20
2023-01-08T16:57:09.931Z,8.21
2023-01-08T16:59:37.626Z,8.20
2023-01-08T17:02:05.371Z,8.20
2023-01-08T17:04:32.981Z,8.08
2023-01-08T17:07:00.633Z,8.02
2023-01-08T17:09:28.308Z,8.07
2023-01-08T17:11:57.333Z,8.09
2023-01-08T17:14:25.040Z,8.06
2023-01-08T17:16:52.696Z,8.09
2023-01-08T17:19:20.713Z,8.16
2023-01-08T17:21:50.290Z,7.84
2023-01-08T17:24:17.848Z,7.92
2023-01-08T17:26:45.430Z,8.09
2023-01-08T17:29:14.487Z,7.91
2023-01-08T17:31:42.121Z,7.91
2023-01-08T17:34:13.422Z,7.88
2023-01-08T17:36:41.100Z,7.86
2023-01-08T17:39:08.855Z,7.87
2023-01-08T17:41:54.759Z,8.13
2023-01-08T17:44:26.368Z,8.19
2023-01-08T17:46:53.937Z,7.81
2023-01-08T17:49:21.524Z,8.03
2023-01-08T17:51:49.235Z,8.02
2023-01-08T17:54:17.762Z,7.96
2023-01-08T17:56:45.408Z,7.84
2023-01-08T17:59:13.957Z,7.92
2023-01-08T18:01:44.763Z,7.96
2023-01-08T18:04:12.403Z,7.83
2023-01-08T18:06:39.998Z,8.06
2023-01-08T18:09:09.565Z,7.81
2023-01-08T18:11:37.150Z,7.88
2023-01-08T18:14:04.808Z,7.81
2023-01-08T18:16:33.410Z,8.00
2023-01-08T18:19:02.514Z,7.96
2023-01-08T18:21:30.212Z,7.82
2023-01-08T18:23:57.896Z,7.89
2023-01-08T18:26:25.511Z,7.91
2023-01-08T18:28:53.351Z,7.90
2023-01-08T18:31:21.081Z,7.89
2023-01-08T18:33:50.506Z,7.69
2023-01-08T18:36:20.298Z,7.77
2023-01-08T18:38:48.291Z,7.86
2023-01-08T18:41:31.688Z,7.86
2023-01-08T18:43:59.355Z,7.86
2023-01-08T18:46:27.425Z,7.88
2023-01-08T18:48:55.011Z,7.82
2023-01-08T18:51:23.960Z,7.75
2023-01-08T18:53:51.587Z,7.80
2023-01-08T18:56:21.571Z,7.97
2023-01-08T18:58:49.138Z,7.87
2023-01-08T19:01:16.878Z,7.91
2023-01-08T19:03:44.613Z,7.61
2023-01-08T19:06:13.218Z,7.85
2023-01-08T19:08:42.875Z,7.83
2023-01-08T19:11:11.668Z,7.83
2023-01-08T19:13:39.832Z,7.71
2023-01-08T19:16:08.647Z,7.72
2023-01-08T19:18:36.708Z,7.78
2023-01-08T19:21:06.311Z,7.91
2023-01-08T19:23:34.582Z,7.82
2023-01-08T19:26:07.739Z,7.80
2023-01-08T19:28:35.605Z,7.79
2023-01-08T19:31:03.734Z,7.82
2023-01-08T19:33:31.700Z,7.66
2023-01-08T19:36:02.297Z,7.73
2023-01-08T19:38:30.017Z,7.70
2023-01-08T19:41:00.088Z,7.57
2023-01-08T19:43:43.486Z,7.55
2023-01-08T19:46:12.007Z,7.58
2023-01-08T19:48:40.932Z,7.54
2023-01-08T19:51:09.493Z,7.43
2023-01-08T19:53:37.577Z,7.32
2023-01-08T19:56:05.366Z,7.37
2023-01-08T19:58:34.514Z,7.31
2023-01-08T20:01:06.242Z,7.48
2023-01-08T20:03:34.132Z,7.37
2023-01-08T20:06:01.857Z,7.31
2023-01-08T20:08:29.477Z,7.48
2023-01-08T20:10:57.114Z,7.47
2023-01-08T20:13:24.877Z,7.50
2023-01-08T20:15:57.827Z,7.45
2023-01-08T20:18:25.609Z,7.48
2023-01-08T20:20:53.293Z,7.56
2023-01-08T20:23:20.993Z,7.58
2023-01-08T20:25:49.246Z,7.39
2023-01-08T20:28:16.911Z,7.54
2023-01-08T20:30:44.616Z,7.39
2023-01-08T20:33:15.459Z,7.47
2023-01-08T20:35:45.372Z,7.62
2023-01-08T20:38:13.131Z,7.58
2023-01-08T20:40:41.413Z,7.50
2023-01-08T20:43:10.036Z,7.58
2023-01-08T20:45:41.052Z,7.49
2023-01-08T20:48:09.058Z,7.47
2023-01-08T20:50:38.149Z,7.39
2023-01-08T20:53:05.943Z,7.42
2023-01-08T20:55:36.923Z,7.41
2023-01-08T20:58:04.671Z,7.42
2023-01-08T21:00:32.438Z,7.62
2023-01-08T21:03:00.344Z,7.56
2023-01-08T21:05:28.156Z,7.37
2023-01-08T21:07:57.294Z,7.19
2023-01-08T21:10:25.087Z,7.41
2023-01-08T21:12:53.301Z,7.51
2023-01-08T21:15:21.730Z,7.32
2023-01-08T21:17:49.903Z,7.43
2023-01-08T21:20:18.109Z,7.50
2023-01-08T21:22:45.834Z,7.58
2023-01-08T21:25:14.972Z,7.33
2023-01-08T21:27:42.597Z,7.60
2023-01-08T21:30:11.798Z,7.58
2023-01-08T21:32:39.448Z,7.45
2023-01-08T21:35:07.526Z,7.66
2023-01-08T21:37:37.067Z,7.59
2023-01-08T21:40:06.124Z,7.62
2023-01-08T21:42:52.385Z,7.67
2023-01-08T21:50:54.723Z,7.62
2023-01-08T21:53:24.517Z,7.54
2023-01-08T22:01:08.665Z,7.73
2023-01-08T22:03:35.577Z,7.59
2023-01-08T22:06:06.310Z,7.70
2023-01-08T22:08:35.498Z,7.72
2023-01-08T22:11:07.650Z,7.61
2023-01-08T22:13:36.153Z,7.63
2023-01-08T22:16:06.636Z,7.56
2023-01-08T22:18:37.641Z,7.77
2023-01-08T22:21:09.237Z,7.71
2023-01-08T22:23:38.641Z,7.70
2023-01-08T22:26:07.479Z,7.54
2023-01-08T22:28:37.648Z,7.65
2023-01-08T22:33:34.185Z,7.63
2023-01-08T22:36:03.806Z,7.49
2023-01-08T22:38:32.869Z,7.70
2023-01-08T22:41:00.519Z,7.63
2023-01-08T22:43:28.194Z,7.61
2023-01-08T22:45:56.571Z,7.64
2023-01-08T22:48:24.995Z,7.65
2023-01-08T22:50:52.816Z,7.39
2023-01-08T22:53:20.556Z,7.74
2023-01-08T22:55:49.638Z,7.68
2023-01-08T22:58:18.264Z,7.66
2023-01-08T23:00:45.950Z,7.59
2023-01-08T23:03:13.781Z,7.57
2023-01-08T23:05:41.624Z,7.58
2023-01-08T23:08:09.620Z,7.42
2023-01-08T23:10:37.386Z,7.50
2023-01-08T23:13:06.621Z,7.48
2023-01-08T23:15:34.264Z,7.29
2023-01-08T23:18:01.997Z,7.26
2023-01-08T23:20:29.808Z,7.50
2023-01-08T23:22:57.469Z,7.42
2023-01-08T23:25:27.282Z,7.32
2023-01-08T23:27:54.974Z,7.41
2023-01-08T23:30:24.184Z,7.26
2023-01-08T23:32:51.784Z,7.30
2023-01-08T23:35:19.393Z,7.45
2023-01-08T23:37:47.060Z,7.23
2023-01-08T23:40:15.960Z,7.34
2023-01-08T23:42:43.605Z,7.28
2023-01-08T23:45:12.252Z,7.22
2023-01-08T23:47:41.259Z,7.44
2023-01-08T23:50:10.375Z,7.34
2023-01-08T23:52:38.049Z,7.37
2023-01-08T23:55:06.516Z,7.49
2023-01-08T23:57:34.179Z,7.34
